sensor_id;sensor_type;location;lat;lon;timestamp;pressure;altitude;pressure_sealevel;temperature;humidity
53908;BME280;40469;47.998;7.794;2023-02-10T00:01:37;100972.13;;;-2.06;100.00
53908;BME280;40469;47.998;7.794;2023-02-10T00:04:02;100974.22;;;-2.13;100.00
53908;BME280;40469;47.998;7.794;2023-02-10T00:06:28;100972.75;;;-2.21;100.00
53908;BME280;40469;47.998;7.794;2023-02-10T00:08:54;100971.44;;;-2.27;100.00
53908;BME280;40469;47.998;7.794;2023-02-10T00:11:20;100977.06;;;-2.32;100.00
53908;BME280;40469;47.998;7.794;2023-02-10T00:14:05;100973.75;;;-2.31;100.00
53908;BME280;40469;47.998;7.794;2023-02-10T00:16:31;100980.31;;;-2.34;100.00
53908;BME280;40469;47.998;7.794;2023-02-10T00:18:56;100976.63;;;-2.38;100.00
53908;BME280;40469;47.998;7.794;2023-02-10T00:21:21;100982.59;;;-2.49;100.00
53908;BME280;40469;47.998;7.794;2023-02-10T00:23:46;100978.41;;;-2.37;100.00
53908;BME280;40469;47.998;7.794;2023-02-10T00:26:12;100972.97;;;-2.30;100.00
53908;BME280;40469;47.998;7.794;2023-02-10T00:28:37;100967.53;;;-2.11;100.00
53908;BME280;40469;47.998;7.794;2023-02-10T00:31:06;100955.75;;;-1.97;100.00
53908;BME280;40469;47.998;7.794;2023-02-10T00:33:32;100963.53;;;-1.83;100.00
53908;BME280;40469;47.998;7.794;2023-02-10T00:35:57;100963.53;;;-1.83;100.00
53908;BME280;40469;47.998;7.794;2023-02-10T00:38:22;100967.63;;;-1.85;100.00
53908;BME280;40469;47.998;7.794;2023-02-10T00:40:47;100962.19;;;-1.90;100.00
53908;BME280;40469;47.998;7.794;2023-02-10T00:43:13;100956.09;;;-1.92;100.00
53908;BME280;40469;47.998;7.794;2023-02-10T00:45:38;100963.19;;;-1.88;100.00
53908;BME280;40469;47.998;7.794;2023-02-10T00:48:03;100966.75;;;-1.86;100.00
53908;BME280;40469;47.998;7.794;2023-02-10T00:50:28;100964.31;;;-1.84;100.00
53908;BME280;40469;47.998;7.794;2023-02-10T00:52:54;100959.41;;;-1.81;100.00
53908;BME280;40469;47.998;7.794;2023-02-10T00:55:19;100964.31;;;-1.73;100.00
53908;BME280;40469;47.998;7.794;2023-02-10T00:57:44;100959.31;;;-1.71;100.00
53908;BME280;40469;47.998;7.794;2023-02-10T01:00:09;100953.16;;;-1.73;100.00
53908;BME280;40469;47.998;7.794;2023-02-10T01:02:35;100957.50;;;-1.72;100.00
53908;BME280;40469;47.998;7.794;2023-02-10T01:05:00;100953.16;;;-1.73;100.00
53908;BME280;40469;47.998;7.794;2023-02-10T01:07:25;100961.63;;;-1.74;100.00
53908;BME280;40469;47.998;7.794;2023-02-10T01:09:51;100969.31;;;-1.74;100.00
53908;BME280;40469;47.998;7.794;2023-02-10T01:12:16;100962.84;;;-1.69;100.00
53908;BME280;40469;47.998;7.794;2023-02-10T01:14:41;100954.19;;;-1.71;100.00
53908;BME280;40469;47.998;7.794;2023-02-10T01:17:06;100956.81;;;-1.69;100.00
53908;BME280;40469;47.998;7.794;2023-02-10T01:19:31;100950.34;;;-1.64;100.00
53908;BME280;40469;47.998;7.794;2023-02-10T01:21:57;100951.28;;;-1.64;100.00
53908;BME280;40469;47.998;7.794;2023-02-10T01:24:22;100949.13;;;-1.69;100.00
53908;BME280;40469;47.998;7.794;2023-02-10T01:26:47;100957.38;;;-1.74;100.00
53908;BME280;40469;47.998;7.794;2023-02-10T01:29:14;100962.28;;;-1.77;100.00
53908;BME280;40469;47.998;7.794;2023-02-10T01:31:39;100961.50;;;-1.76;100.00
53908;BME280;40469;47.998;7.794;2023-02-10T01:34:04;100957.38;;;-1.74;100.00
53908;BME280;40469;47.998;7.794;2023-02-10T01:36:29;100965.53;;;-1.67;100.00
53908;BME280;40469;47.998;7.794;2023-02-10T01:38:54;100960.19;;;-1.70;100.00
53908;BME280;40469;47.998;7.794;2023-02-10T01:41:20;100953.59;;;-1.67;100.00
53908;BME280;40469;47.998;7.794;2023-02-10T01:43:57;100959.31;;;-1.71;100.00
53908;BME280;40469;47.998;7.794;2023-02-10T01:46:23;100962.63;;;-1.72;100.00
53908;BME280;40469;47.998;7.794;2023-02-10T01:48:49;100960.94;;;-1.72;100.00
53908;BME280;40469;47.998;7.794;2023-02-10T01:51:15;100972.88;;;-1.72;100.00
53908;BME280;40469;47.998;7.794;2023-02-10T01:53:42;100972.09;;;-1.71;100.00
53908;BME280;40469;47.998;7.794;2023-02-10T01:56:08;100966.28;;;-1.68;100.00
53908;BME280;40469;47.998;7.794;2023-02-10T01:58:34;100967.97;;;-1.69;100.00
53908;BME280;40469;47.998;7.794;2023-02-10T02:01:00;100963.97;;;-1.77;100.00
53908;BME280;40469;47.998;7.794;2023-02-10T02:03:25;100962.19;;;-1.78;100.00
53908;BME280;40469;47.998;7.794;2023-02-10T02:05:51;100966.88;;;-1.84;100.00
53908;BME280;40469;47.998;7.794;2023-02-10T02:08:23;100969.53;;;-1.83;100.00
53908;BME280;40469;47.998;7.794;2023-02-10T02:11:07;100973.22;;;-1.91;100.00
53908;BME280;40469;47.998;7.794;2023-02-10T02:13:42;100985.25;;;-1.90;100.00
53908;BME280;40469;47.998;7.794;2023-02-10T02:21:44;100986.69;;;-2.05;100.00
53908;BME280;40469;47.998;7.794;2023-02-10T02:24:26;100990.34;;;-2.02;100.00
53908;BME280;40469;47.998;7.794;2023-02-10T02:27:06;100985.34;;;-2.00;100.00
53908;BME280;40469;47.998;7.794;2023-02-10T02:32:23;100990.13;;;-2.05;100.00
53908;BME280;40469;47.998;7.794;2023-02-10T02:37:31;100984.09;;;-2.17;100.00
53908;BME280;40469;47.998;7.794;2023-02-10T02:39:57;100985.00;;;-2.17;100.00
53908;BME280;40469;47.998;7.794;2023-02-10T02:45:07;100984.09;;;-2.29;100.00
53908;BME280;40469;47.998;7.794;2023-02-10T02:53:37;100978.28;;;-2.50;100.00
53908;BME280;40469;47.998;7.794;2023-02-10T03:00:38;100993.81;;;-2.59;100.00
53908;BME280;40469;47.998;7.794;2023-02-10T03:03:04;100992.03;;;-2.60;100.00
53908;BME280;40469;47.998;7.794;2023-02-10T03:05:31;100984.03;;;-2.64;100.00
53908;BME280;40469;47.998;7.794;2023-02-10T03:07:57;100989.91;;;-2.65;100.00
53908;BME280;40469;47.998;7.794;2023-02-10T03:10:22;100981.88;;;-2.70;100.00
53908;BME280;40469;47.998;7.794;2023-02-10T03:12:47;100991.53;;;-2.78;100.00
53908;BME280;40469;47.998;7.794;2023-02-10T03:15:13;100993.44;;;-2.75;100.00
53908;BME280;40469;47.998;7.794;2023-02-10T03:17:38;100997.69;;;-2.64;100.00
53908;BME280;40469;47.998;7.794;2023-02-10T03:20:04;100999.13;;;-2.68;100.00
53908;BME280;40469;47.998;7.794;2023-02-10T03:22:29;101006.31;;;-2.74;100.00
53908;BME280;40469;47.998;7.794;2023-02-10T03:24:54;101005.00;;;-2.80;100.00
53908;BME280;40469;47.998;7.794;2023-02-10T03:27:20;101012.03;;;-2.88;100.00
53908;BME280;40469;47.998;7.794;2023-02-10T03:29:45;101010.41;;;-2.88;100.00
53908;BME280;40469;47.998;7.794;2023-02-10T03:32:13;101007.53;;;-3.02;100.00
53908;BME280;40469;47.998;7.794;2023-02-10T03:34:38;101013.16;;;-2.96;100.00
53908;BME280;40469;47.998;7.794;2023-02-10T03:37:04;101016.34;;;-2.99;100.00
53908;BME280;40469;47.998;7.794;2023-02-10T03:39:29;101021.31;;;-3.00;100.00
53908;BME280;40469;47.998;7.794;2023-02-10T03:41:54;101014.09;;;-3.06;100.00
53908;BME280;40469;47.998;7.794;2023-02-10T03:44:19;101015.94;;;-3.15;100.00
53908;BME280;40469;47.998;7.794;2023-02-10T03:46:45;101020.19;;;-3.26;100.00
53908;BME280;40469;47.998;7.794;2023-02-10T03:49:10;101023.63;;;-3.26;100.00
53908;BME280;40469;47.998;7.794;2023-02-10T03:51:35;101029.00;;;-3.22;100.00
53908;BME280;40469;47.998;7.794;2023-02-10T03:54:00;101022.13;;;-3.34;100.00
53908;BME280;40469;47.998;7.794;2023-02-10T03:56:25;101037.84;;;-3.29;100.00
53908;BME280;40469;47.998;7.794;2023-02-10T03:58:51;101041.28;;;-3.29;100.00
53908;BME280;40469;47.998;7.794;2023-02-10T04:01:16;101040.94;;;-3.33;100.00
53908;BME280;40469;47.998;7.794;2023-02-10T04:03:43;101033.25;;;-3.33;100.00
53908;BME280;40469;47.998;7.794;2023-02-10T04:06:09;101042.06;;;-3.30;100.00
53908;BME280;40469;47.998;7.794;2023-02-10T04:08:35;101045.22;;;-3.22;100.00
53908;BME280;40469;47.998;7.794;2023-02-10T04:11:01;101036.81;;;-3.09;100.00
53908;BME280;40469;47.998;7.794;2023-02-10T04:13:26;101032.84;;;-3.06;100.00
53908;BME280;40469;47.998;7.794;2023-02-10T04:16:05;101045.88;;;-3.02;100.00
53908;BME280;40469;47.998;7.794;2023-02-10T04:18:31;101046.13;;;-2.99;100.00
53908;BME280;40469;47.998;7.794;2023-02-10T04:20:56;101047.53;;;-3.03;100.00
53908;BME280;40469;47.998;7.794;2023-02-10T04:23:21;101043.31;;;-3.02;100.00
53908;BME280;40469;47.998;7.794;2023-02-10T04:25:47;101039.00;;;-3.03;100.00
53908;BME280;40469;47.998;7.794;2023-02-10T04:28:12;101036.44;;;-3.03;100.00
53908;BME280;40469;47.998;7.794;2023-02-10T04:30:37;101042.19;;;-3.06;100.00
53908;BME280;40469;47.998;7.794;2023-02-10T04:33:02;101039.94;;;-3.13;100.00
53908;BME280;40469;47.998;7.794;2023-02-10T04:35:28;101043.03;;;-3.17;100.00
53908;BME280;40469;47.998;7.794;2023-02-10T04:37:53;101042.09;;;-3.18;100.00
53908;BME280;40469;47.998;7.794;2023-02-10T04:40:18;101043.66;;;-3.20;100.00
53908;BME280;40469;47.998;7.794;2023-02-10T04:42:43;101038.31;;;-3.23;100.00
53908;BME280;40469;47.998;7.794;2023-02-10T04:45:09;101040.84;;;-3.23;100.00
53908;BME280;40469;47.998;7.794;2023-02-10T04:47:34;101042.91;;;-3.19;100.00
53908;BME280;40469;47.998;7.794;2023-02-10T04:49:59;101050.56;;;-3.19;100.00
53908;BME280;40469;47.998;7.794;2023-02-10T04:52:24;101047.72;;;-3.12;100.00
53908;BME280;40469;47.998;7.794;2023-02-10T04:54:50;101051.78;;;-3.03;100.00
53908;BME280;40469;47.998;7.794;2023-02-10T04:57:15;101045.44;;;-2.97;100.00
53908;BME280;40469;47.998;7.794;2023-02-10T04:59:40;101053.38;;;-2.94;100.00
53908;BME280;40469;47.998;7.794;2023-02-10T05:02:06;101049.94;;;-2.94;100.00
53908;BME280;40469;47.998;7.794;2023-02-10T05:04:31;101044.03;;;-2.93;100.00
53908;BME280;40469;47.998;7.794;2023-02-10T05:06:56;101046.81;;;-2.90;100.00
53908;BME280;40469;47.998;7.794;2023-02-10T05:09:23;101043.38;;;-2.91;100.00
53908;BME280;40469;47.998;7.794;2023-02-10T05:11:48;101038.41;;;-2.89;100.00
53908;BME280;40469;47.998;7.794;2023-02-10T05:14:14;101040.03;;;-2.90;100.00
53908;BME280;40469;47.998;7.794;2023-02-10T05:16:39;101045.41;;;-2.87;100.00
53908;BME280;40469;47.998;7.794;2023-02-10T05:19:04;101048.06;;;-2.85;100.00
53908;BME280;40469;47.998;7.794;2023-02-10T05:21:29;101040.41;;;-2.85;100.00
53908;BME280;40469;47.998;7.794;2023-02-10T05:23:56;101045.66;;;-2.83;100.00
53908;BME280;40469;47.998;7.794;2023-02-10T05:26:22;101049.88;;;-2.84;100.00
53908;BME280;40469;47.998;7.794;2023-02-10T05:28:47;101045.53;;;-2.85;100.00
53908;BME280;40469;47.998;7.794;2023-02-10T05:31:12;101038.72;;;-2.84;100.00
53908;BME280;40469;47.998;7.794;2023-02-10T05:33:37;101044.75;;;-2.84;100.00
53908;BME280;40469;47.998;7.794;2023-02-10T05:36:03;101045.09;;;-2.79;100.00
53908;BME280;40469;47.998;7.794;2023-02-10T05:38:28;101037.53;;;-2.78;100.00
53908;BME280;40469;47.998;7.794;2023-02-10T05:40:54;101047.78;;;-2.78;100.00
53908;BME280;40469;47.998;7.794;2023-02-10T05:43:19;101051.88;;;-2.80;100.00
53908;BME280;40469;47.998;7.794;2023-02-10T05:45:47;101037.97;;;-2.83;100.00
53908;BME280;40469;47.998;7.794;2023-02-10T05:48:12;101041.28;;;-2.84;100.00
53908;BME280;40469;47.998;7.794;2023-02-10T05:50:38;101046.53;;;-2.83;100.00
53908;BME280;40469;47.998;7.794;2023-02-10T05:53:05;101039.09;;;-2.80;100.00
53908;BME280;40469;47.998;7.794;2023-02-10T05:55:30;101051.50;;;-2.84;100.00
53908;BME280;40469;47.998;7.794;2023-02-10T05:57:55;101051.00;;;-2.80;100.00
53908;BME280;40469;47.998;7.794;2023-02-10T06:00:20;101047.66;;;-2.79;100.00
53908;BME280;40469;47.998;7.794;2023-02-10T06:02:46;101051.88;;;-2.80;100.00
53908;BME280;40469;47.998;7.794;2023-02-10T06:05:11;101051.88;;;-2.80;100.00
53908;BME280;40469;47.998;7.794;2023-02-10T06:07:36;101050.53;;;-2.19;100.00
53908;BME280;40469;47.998;7.794;2023-02-10T06:10:02;101062.13;;;-2.46;100.00
53908;BME280;40469;47.998;7.794;2023-02-10T06:12:27;101062.63;;;-2.62;100.00
53908;BME280;40469;47.998;7.794;2023-02-10T06:14:52;101061.69;;;-2.74;100.00
53908;BME280;40469;47.998;7.794;2023-02-10T06:17:17;101062.00;;;-2.81;100.00
53908;BME280;40469;47.998;7.794;2023-02-10T06:19:43;101073.63;;;-2.85;100.00
53908;BME280;40469;47.998;7.794;2023-02-10T06:22:08;101072.63;;;-2.87;100.00
53908;BME280;40469;47.998;7.794;2023-02-10T06:24:34;101079.28;;;-2.89;100.00
53908;BME280;40469;47.998;7.794;2023-02-10T06:26:59;101090.69;;;-2.96;100.00
53908;BME280;40469;47.998;7.794;2023-02-10T06:29:25;101086.88;;;-3.01;100.00
53908;BME280;40469;47.998;7.794;2023-02-10T06:31:50;101082.44;;;-3.03;100.00
53908;BME280;40469;47.998;7.794;2023-02-10T06:34:15;101093.28;;;-3.06;100.00
53908;BME280;40469;47.998;7.794;2023-02-10T06:36:41;101087.81;;;-3.11;100.00
53908;BME280;40469;47.998;7.794;2023-02-10T06:39:06;101092.56;;;-3.15;100.00
53908;BME280;40469;47.998;7.794;2023-02-10T06:41:31;101083.50;;;-3.12;100.00
53908;BME280;40469;47.998;7.794;2023-02-10T06:43:57;101085.38;;;-3.09;100.00
53908;BME280;40469;47.998;7.794;2023-02-10T06:46:22;101093.16;;;-3.08;100.00
53908;BME280;40469;47.998;7.794;2023-02-10T06:48:47;101098.28;;;-3.08;100.00
53908;BME280;40469;47.998;7.794;2023-02-10T06:51:13;101107.50;;;-3.10;100.00
53908;BME280;40469;47.998;7.794;2023-02-10T06:53:38;101108.16;;;-3.12;100.00
53908;BME280;40469;47.998;7.794;2023-02-10T06:56:03;101106.91;;;-3.17;100.00
53908;BME280;40469;47.998;7.794;2023-02-10T06:58:29;101106.66;;;-3.20;100.00
53908;BME280;40469;47.998;7.794;2023-02-10T07:00:54;101109.94;;;-3.21;100.00
53908;BME280;40469;47.998;7.794;2023-02-10T07:03:19;101116.59;;;-3.24;100.00
53908;BME280;40469;47.998;7.794;2023-02-10T07:05:45;101120.84;;;-3.24;100.00
53908;BME280;40469;47.998;7.794;2023-02-10T07:08:17;101124.03;;;-3.27;100.00
53908;BME280;40469;47.998;7.794;2023-02-10T07:10:42;101128.00;;;-3.30;100.00
53908;BME280;40469;47.998;7.794;2023-02-10T07:13:08;101125.09;;;-3.45;100.00
53908;BME280;40469;47.998;7.794;2023-02-10T07:15:33;101126.66;;;-3.47;100.00
53908;BME280;40469;47.998;7.794;2023-02-10T07:17:58;101121.28;;;-3.50;100.00
53908;BME280;40469;47.998;7.794;2023-02-10T07:20:23;101126.41;;;-3.50;100.00
53908;BME280;40469;47.998;7.794;2023-02-10T07:22:49;101127.78;;;-3.44;100.00
53908;BME280;40469;47.998;7.794;2023-02-10T07:25:15;101125.09;;;-3.45;100.00
53908;BME280;40469;47.998;7.794;2023-02-10T07:27:40;101128.13;;;-3.39;100.00
53908;BME280;40469;47.998;7.794;2023-02-10T07:30:06;101133.00;;;-3.32;100.00
53908;BME280;40469;47.998;7.794;2023-02-10T07:32:31;101132.59;;;-3.26;100.00
53908;BME280;40469;47.998;7.794;2023-02-10T07:34:56;101137.19;;;-3.22;100.00
53908;BME280;40469;47.998;7.794;2023-02-10T07:37:21;101143.53;;;-3.17;100.00
53908;BME280;40469;47.998;7.794;2023-02-10T07:39:47;101137.28;;;-3.10;100.00
53908;BME280;40469;47.998;7.794;2023-02-10T07:42:12;101140.31;;;-3.04;100.00
53908;BME280;40469;47.998;7.794;2023-02-10T07:44:37;101145.13;;;-2.97;100.00
53908;BME280;40469;47.998;7.794;2023-02-10T07:47:04;101146.25;;;-2.93;100.00
53908;BME280;40469;47.998;7.794;2023-02-10T07:49:29;101143.56;;;-2.95;100.00
53908;BME280;40469;47.998;7.794;2023-02-10T07:51:55;101151.63;;;-2.90;100.00
53908;BME280;40469;47.998;7.794;2023-02-10T07:54:20;101147.00;;;-2.84;100.00
53908;BME280;40469;47.998;7.794;2023-02-10T07:56:46;101150.78;;;-2.79;100.00
53908;BME280;40469;47.998;7.794;2023-02-10T07:59:11;101154.72;;;-2.72;100.00
53908;BME280;40469;47.998;7.794;2023-02-10T08:01:37;101157.91;;;-2.64;100.00
53908;BME280;40469;47.998;7.794;2023-02-10T08:04:06;101156.19;;;-2.54;100.00
53908;BME280;40469;47.998;7.794;2023-02-10T08:06:32;101159.03;;;-2.39;100.00
53908;BME280;40469;47.998;7.794;2023-02-10T08:08:57;101162.03;;;-2.11;100.00
53908;BME280;40469;47.998;7.794;2023-02-10T08:11:22;101157.44;;;-1.81;100.00
53908;BME280;40469;47.998;7.794;2023-02-10T08:13:47;101150.38;;;-1.49;100.00
53908;BME280;40469;47.998;7.794;2023-02-10T08:16:13;101148.16;;;-1.21;100.00
53908;BME280;40469;47.998;7.794;2023-02-10T08:18:38;101157.06;;;-0.92;100.00
53908;BME280;40469;47.998;7.794;2023-02-10T08:21:04;101157.81;;;-0.82;100.00
53908;BME280;40469;47.998;7.794;2023-02-10T08:23:29;101156.59;;;-0.75;100.00
53908;BME280;40469;47.998;7.794;2023-02-10T08:25:54;101158.69;;;-0.69;100.00
53908;BME280;40469;47.998;7.794;2023-02-10T08:28:19;101159.66;;;-0.55;100.00
53908;BME280;40469;47.998;7.794;2023-02-10T08:30:45;101160.63;;;-0.42;100.00
53908;BME280;40469;47.998;7.794;2023-02-10T08:33:10;101169.22;;;-0.16;100.00
53908;BME280;40469;47.998;7.794;2023-02-10T08:35:36;101158.38;;;0.13;100.00
53908;BME280;40469;47.998;7.794;2023-02-10T08:38:02;101154.81;;;0.50;100.00
53908;BME280;40469;47.998;7.794;2023-02-10T08:40:27;101158.84;;;0.60;100.00
53908;BME280;40469;47.998;7.794;2023-02-10T08:42:53;101156.03;;;0.82;100.00
53908;BME280;40469;47.998;7.794;2023-02-10T08:45:18;101149.28;;;0.84;100.00
53908;BME280;40469;47.998;7.794;2023-02-10T08:47:43;101160.97;;;0.92;100.00
53908;BME280;40469;47.998;7.794;2023-02-10T08:50:08;101160.56;;;0.99;100.00
53908;BME280;40469;47.998;7.794;2023-02-10T08:52:34;101161.94;;;1.07;100.00
53908;BME280;40469;47.998;7.794;2023-02-10T08:54:59;101157.25;;;1.42;100.00
53908;BME280;40469;47.998;7.794;2023-02-10T08:57:26;101155.88;;;1.62;100.00
53908;BME280;40469;47.998;7.794;2023-02-10T08:59:51;101161.69;;;1.73;100.00
53908;BME280;40469;47.998;7.794;2023-02-10T09:02:17;101155.69;;;1.87;100.00
53908;BME280;40469;47.998;7.794;2023-02-10T09:04:42;101157.59;;;2.04;100.00
53908;BME280;40469;47.998;7.794;2023-02-10T09:07:07;101155.78;;;1.88;100.00
53908;BME280;40469;47.998;7.794;2023-02-10T09:09:36;101154.13;;;1.89;100.00
53908;BME280;40469;47.998;7.794;2023-02-10T09:12:02;101159.72;;;1.97;100.00
53908;BME280;40469;47.998;7.794;2023-02-10T09:14:29;101157.44;;;2.31;100.00
53908;BME280;40469;47.998;7.794;2023-02-10T09:16:54;101150.09;;;2.37;100.00
53908;BME280;40469;47.998;7.794;2023-02-10T09:19:20;101153.19;;;2.76;100.00
53908;BME280;40469;47.998;7.794;2023-02-10T09:21:45;101150.25;;;3.16;100.00
53908;BME280;40469;47.998;7.794;2023-02-10T09:24:10;101149.63;;;3.20;100.00
53908;BME280;40469;47.998;7.794;2023-02-10T09:26:35;101154.34;;;3.44;100.00
53908;BME280;40469;47.998;7.794;2023-02-10T09:29:00;101140.41;;;3.73;100.00
53908;BME280;40469;47.998;7.794;2023-02-10T09:31:26;101150.25;;;4.13;100.00
53908;BME280;40469;47.998;7.794;2023-02-10T09:33:51;101148.63;;;4.50;100.00
53908;BME280;40469;47.998;7.794;2023-02-10T09:36:17;101145.31;;;4.02;100.00
53908;BME280;40469;47.998;7.794;2023-02-10T09:38:43;101149.00;;;4.23;100.00
53908;BME280;40469;47.998;7.794;2023-02-10T09:54:33;101140.38;;;4.93;100.00
53908;BME280;40469;47.998;7.794;2023-02-10T09:57:03;101131.34;;;5.21;100.00
53908;BME280;40469;47.998;7.794;2023-02-10T09:59:28;101130.75;;;5.46;100.00
53908;BME280;40469;47.998;7.794;2023-02-10T10:01:55;101128.72;;;6.17;100.00
53908;BME280;40469;47.998;7.794;2023-02-10T10:04:22;101138.84;;;5.34;100.00
53908;BME280;40469;47.998;7.794;2023-02-10T10:06:52;101133.69;;;5.54;100.00
53908;BME280;40469;47.998;7.794;2023-02-10T10:09:37;101127.78;;;5.95;100.00
53908;BME280;40469;47.998;7.794;2023-02-10T10:12:07;101134.47;;;5.90;100.00
53908;BME280;40469;47.998;7.794;2023-02-10T10:14:37;101140.53;;;5.71;100.00
53908;BME280;40469;47.998;7.794;2023-02-10T10:23:33;101133.16;;;5.80;100.00
53908;BME280;40469;47.998;7.794;2023-02-10T10:28:03;101131.75;;;6.06;100.00
53908;BME280;40469;47.998;7.794;2023-02-10T10:30:44;101134.84;;;6.59;100.00
53908;BME280;40469;47.998;7.794;2023-02-10T10:33:24;101134.97;;;6.62;100.00
53908;BME280;40469;47.998;7.794;2023-02-10T10:35:52;101135.69;;;6.58;100.00
53908;BME280;40469;47.998;7.794;2023-02-10T10:38:20;101131.78;;;6.49;100.00
53908;BME280;40469;47.998;7.794;2023-02-10T10:40:47;101128.06;;;6.63;100.00
53908;BME280;40469;47.998;7.794;2023-02-10T10:43:17;101125.19;;;6.15;100.00
53908;BME280;40469;47.998;7.794;2023-02-10T10:45:44;101120.56;;;6.07;100.00
53908;BME280;40469;47.998;7.794;2023-02-10T10:48:20;101128.69;;;6.57;100.00
53908;BME280;40469;47.998;7.794;2023-02-10T10:50:50;101127.31;;;6.44;100.00
53908;BME280;40469;47.998;7.794;2023-02-10T10:53:20;101126.63;;;6.08;100.00
53908;BME280;40469;47.998;7.794;2023-02-10T10:55:47;101123.38;;;6.33;100.00
53908;BME280;40469;47.998;7.794;2023-02-10T10:58:28;101115.06;;;6.63;100.00
53908;BME280;40469;47.998;7.794;2023-02-10T11:00:56;101115.22;;;6.04;100.00
53908;BME280;40469;47.998;7.794;2023-02-10T11:03:22;101116.03;;;5.84;100.00
53908;BME280;40469;47.998;7.794;2023-02-10T11:06:07;101115.19;;;6.24;100.00
53908;BME280;40469;47.998;7.794;2023-02-10T11:08:35;101115.41;;;6.50;100.00
53908;BME280;40469;47.998;7.794;2023-02-10T11:11:03;101111.94;;;6.08;100.00
53908;BME280;40469;47.998;7.794;2023-02-10T11:13:29;101118.31;;;6.57;100.00
53908;BME280;40469;47.998;7.794;2023-02-10T11:16:03;101112.47;;;6.84;100.00
53908;BME280;40469;47.998;7.794;2023-02-10T11:18:29;101102.03;;;5.98;100.00
53908;BME280;40469;47.998;7.794;2023-02-10T11:20:56;101106.81;;;6.10;100.00
53908;BME280;40469;47.998;7.794;2023-02-10T11:23:21;101108.22;;;5.82;100.00
53908;BME280;40469;47.998;7.794;2023-02-10T11:25:55;101104.13;;;6.28;100.00
53908;BME280;40469;47.998;7.794;2023-02-10T11:28:21;101100.31;;;6.83;100.00
53908;BME280;40469;47.998;7.794;2023-02-10T11:30:54;101098.13;;;6.50;100.00
53908;BME280;40469;47.998;7.794;2023-02-10T11:33:21;101095.72;;;5.93;100.00
53908;BME280;40469;47.998;7.794;2023-02-10T11:36:04;101092.59;;;6.63;100.00
53908;BME280;40469;47.998;7.794;2023-02-10T11:38:30;101093.03;;;6.95;100.00
53908;BME280;40469;47.998;7.794;2023-02-10T11:40:58;101087.03;;;6.98;100.00
53908;BME280;40469;47.998;7.794;2023-02-10T11:43:42;101087.97;;;6.77;100.00
53908;BME280;40469;47.998;7.794;2023-02-10T11:46:17;101086.06;;;6.73;100.00
53908;BME280;40469;47.998;7.794;2023-02-10T11:48:51;101083.84;;;7.05;100.00
53908;BME280;40469;47.998;7.794;2023-02-10T11:51:16;101091.06;;;7.35;100.00
53908;BME280;40469;47.998;7.794;2023-02-10T11:53:44;101088.19;;;7.27;100.00
53908;BME280;40469;47.998;7.794;2023-02-10T12:06:25;101086.31;;;7.02;100.00
53908;BME280;40469;47.998;7.794;2023-02-10T12:08:57;101082.44;;;7.36;100.00
53908;BME280;40469;47.998;7.794;2023-02-10T12:11:27;101078.13;;;7.14;100.00
53908;BME280;40469;47.998;7.794;2023-02-10T12:18:58;101066.94;;;7.39;100.00
53908;BME280;40469;47.998;7.794;2023-02-10T12:23:57;101068.28;;;7.76;100.00
53908;BME280;40469;47.998;7.794;2023-02-10T12:26:27;101074.53;;;7.33;100.00
53908;BME280;40469;47.998;7.794;2023-02-10T12:36:32;101061.03;;;7.67;100.00
53908;BME280;40469;47.998;7.794;2023-02-10T12:39:08;101065.41;;;7.92;100.00
53908;BME280;40469;47.998;7.794;2023-02-10T12:47:41;101060.75;;;7.84;100.00
53908;BME280;40469;47.998;7.794;2023-02-10T12:50:22;101063.19;;;7.79;100.00
53908;BME280;40469;47.998;7.794;2023-02-10T12:52:55;101052.78;;;7.79;100.00
53908;BME280;40469;47.998;7.794;2023-02-10T12:55:55;101047.06;;;7.89;100.00
53908;BME280;40469;47.998;7.794;2023-02-10T12:58:16;101044.81;;;7.74;100.00
53908;BME280;40469;47.998;7.794;2023-02-10T13:00:48;101040.03;;;7.87;100.00
53908;BME280;40469;47.998;7.794;2023-02-10T13:03:17;101039.66;;;7.76;100.00
53908;BME280;40469;47.998;7.794;2023-02-10T13:05:51;101041.03;;;7.90;100.00
53908;BME280;40469;47.998;7.794;2023-02-10T13:08:30;101045.16;;;8.09;100.00
53908;BME280;40469;47.998;7.794;2023-02-10T13:11:40;101037.84;;;8.50;100.00
53908;BME280;40469;47.998;7.794;2023-02-10T13:13:46;101035.56;;;8.60;100.00
53908;BME280;40469;47.998;7.794;2023-02-10T13:16:16;101027.34;;;8.47;100.00
53908;BME280;40469;47.998;7.794;2023-02-10T13:18:49;101029.84;;;7.93;100.00
53908;BME280;40469;47.998;7.794;2023-02-10T13:21:19;101029.13;;;7.71;100.00
53908;BME280;40469;47.998;7.794;2023-02-10T13:23:54;101028.44;;;7.29;100.00
53908;BME280;40469;47.998;7.794;2023-02-10T13:34:23;101019.09;;;7.82;100.00
53908;BME280;40469;47.998;7.794;2023-02-10T13:39:33;101022.47;;;8.05;100.00
53908;BME280;40469;47.998;7.794;2023-02-10T13:44:44;101021.22;;;7.94;100.00
53908;BME280;40469;47.998;7.794;2023-02-10T13:49:49;101027.88;;;8.11;100.00
53908;BME280;40469;47.998;7.794;2023-02-10T13:52:25;101032.09;;;7.58;100.00
53908;BME280;40469;47.998;7.794;2023-02-10T13:54:58;101027.41;;;7.24;100.00
53908;BME280;40469;47.998;7.794;2023-02-10T13:57:29;101027.63;;;7.30;100.00
53908;BME280;40469;47.998;7.794;2023-02-10T14:00:04;101022.69;;;7.13;100.00
53908;BME280;40469;47.998;7.794;2023-02-10T14:02:29;101029.34;;;6.61;100.00
53908;BME280;40469;47.998;7.794;2023-02-10T14:04:55;101030.53;;;6.26;100.00
53908;BME280;40469;47.998;7.794;2023-02-10T14:12:31;101037.66;;;5.89;100.00
53908;BME280;40469;47.998;7.794;2023-02-10T14:14:56;101036.81;;;5.91;100.00
53908;BME280;40469;47.998;7.794;2023-02-10T14:17:24;101032.19;;;5.83;100.00
53908;BME280;40469;47.998;7.794;2023-02-10T14:19:55;101034.94;;;5.86;100.00
53908;BME280;40469;47.998;7.794;2023-02-10T14:24:46;101040.91;;;5.85;100.00